sensor_id;sensor_type;location;lat;lon;timestamp;P1;durP1;ratioP1;P2;durP2;ratioP2
48613;SDS011;34408;51.426;5.444;2023-01-28T00:01:31;10.48;;;7.10;;
48613;SDS011;34408;51.426;5.444;2023-01-28T00:04:00;7.97;;;6.70;;
48613;SDS011;34408;51.426;5.444;2023-01-28T00:06:28;8.00;;;6.30;;
48613;SDS011;34408;51.426;5.444;2023-01-28T00:08:56;8.70;;;7.15;;
48613;SDS011;34408;51.426;5.444;2023-01-28T00:11:25;7.90;;;5.93;;
48613;SDS011;34408;51.426;5.444;2023-01-28T00:13:52;8.68;;;6.55;;
48613;SDS011;34408;51.426;5.444;2023-01-28T00:16:21;8.43;;;6.45;;
48613;SDS011;34408;51.426;5.444;2023-01-28T00:18:49;8.15;;;6.40;;
48613;SDS011;34408;51.426;5.444;2023-01-28T00:21:18;7.15;;;5.85;;
48613;SDS011;34408;51.426;5.444;2023-01-28T00:23:46;8.90;;;6.63;;
48613;SDS011;34408;51.426;5.444;2023-01-28T00:26:17;11.00;;;7.55;;
48613;SDS011;34408;51.426;5.444;2023-01-28T00:28:45;17.23;;;7.55;;
48613;SDS011;34408;51.426;5.444;2023-01-28T00:31:14;12.27;;;7.55;;
48613;SDS011;34408;51.426;5.444;2023-01-28T00:33:43;12.20;;;6.72;;
48613;SDS011;34408;51.426;5.444;2023-01-28T00:36:13;9.15;;;7.07;;
48613;SDS011;34408;51.426;5.444;2023-01-28T00:38:47;11.60;;;7.65;;
48613;SDS011;34408;51.426;5.444;2023-01-28T00:41:16;12.93;;;7.40;;
48613;SDS011;34408;51.426;5.444;2023-01-28T00:43:47;9.55;;;7.10;;
48613;SDS011;34408;51.426;5.444;2023-01-28T00:46:15;11.73;;;7.38;;
48613;SDS011;34408;51.426;5.444;2023-01-28T00:48:43;9.10;;;6.72;;
48613;SDS011;34408;51.426;5.444;2023-01-28T00:51:12;10.10;;;6.95;;
48613;SDS011;34408;51.426;5.444;2023-01-28T00:53:43;10.38;;;7.20;;
48613;SDS011;34408;51.426;5.444;2023-01-28T00:56:12;10.38;;;7.47;;
48613;SDS011;34408;51.426;5.444;2023-01-28T00:58:41;13.88;;;7.80;;
48613;SDS011;34408;51.426;5.444;2023-01-28T01:01:10;9.73;;;6.93;;
48613;SDS011;34408;51.426;5.444;2023-01-28T01:03:38;9.00;;;6.40;;
48613;SDS011;34408;51.426;5.444;2023-01-28T01:06:07;11.25;;;7.13;;
48613;SDS011;34408;51.426;5.444;2023-01-28T01:08:35;9.48;;;7.28;;
48613;SDS011;34408;51.426;5.444;2023-01-28T01:11:07;10.25;;;7.57;;
48613;SDS011;34408;51.426;5.444;2023-01-28T01:13:36;11.05;;;7.50;;
48613;SDS011;34408;51.426;5.444;2023-01-28T01:16:05;9.82;;;6.65;;
48613;SDS011;34408;51.426;5.444;2023-01-28T01:18:36;10.00;;;7.55;;
48613;SDS011;34408;51.426;5.444;2023-01-28T01:21:07;9.40;;;7.40;;
48613;SDS011;34408;51.426;5.444;2023-01-28T01:23:36;8.98;;;6.85;;
48613;SDS011;34408;51.426;5.444;2023-01-28T01:26:04;9.30;;;6.65;;
48613;SDS011;34408;51.426;5.444;2023-01-28T01:28:34;9.57;;;7.28;;
48613;SDS011;34408;51.426;5.444;2023-01-28T01:31:03;9.77;;;7.53;;
48613;SDS011;34408;51.426;5.444;2023-01-28T01:33:32;9.70;;;7.03;;
48613;SDS011;34408;51.426;5.444;2023-01-28T01:36:01;10.23;;;7.47;;
48613;SDS011;34408;51.426;5.444;2023-01-28T01:38:29;10.40;;;7.78;;
48613;SDS011;34408;51.426;5.444;2023-01-28T01:40:57;9.93;;;7.32;;
48613;SDS011;34408;51.426;5.444;2023-01-28T01:46:18;11.15;;;7.22;;
48613;SDS011;34408;51.426;5.444;2023-01-28T01:48:49;10.80;;;7.88;;
48613;SDS011;34408;51.426;5.444;2023-01-28T01:51:20;9.48;;;7.22;;
48613;SDS011;34408;51.426;5.444;2023-01-28T01:53:51;10.50;;;7.43;;
48613;SDS011;34408;51.426;5.444;2023-01-28T01:56:23;10.82;;;7.85;;
48613;SDS011;34408;51.426;5.444;2023-01-28T01:58:55;9.00;;;6.90;;
48613;SDS011;34408;51.426;5.444;2023-01-28T02:01:25;10.27;;;7.53;;
48613;SDS011;34408;51.426;5.444;2023-01-28T02:03:56;10.05;;;7.22;;
48613;SDS011;34408;51.426;5.444;2023-01-28T02:06:29;10.88;;;8.00;;
48613;SDS011;34408;51.426;5.444;2023-01-28T02:08:58;9.95;;;7.53;;
48613;SDS011;34408;51.426;5.444;2023-01-28T02:11:26;11.25;;;7.85;;
48613;SDS011;34408;51.426;5.444;2023-01-28T02:13:59;9.55;;;7.22;;
48613;SDS011;34408;51.426;5.444;2023-01-28T02:16:30;12.73;;;8.60;;
48613;SDS011;34408;51.426;5.444;2023-01-28T02:18:59;11.02;;;8.10;;
48613;SDS011;34408;51.426;5.444;2023-01-28T02:24:35;10.13;;;8.00;;
48613;SDS011;34408;51.426;5.444;2023-01-28T02:27:23;11.23;;;7.57;;
48613;SDS011;34408;51.426;5.444;2023-01-28T02:29:58;9.23;;;7.05;;
48613;SDS011;34408;51.426;5.444;2023-01-28T02:32:35;9.65;;;6.90;;
48613;SDS011;34408;51.426;5.444;2023-01-28T02:35:10;10.63;;;8.02;;
48613;SDS011;34408;51.426;5.444;2023-01-28T02:37:43;10.82;;;7.93;;
48613;SDS011;34408;51.426;5.444;2023-01-28T02:40:15;11.27;;;8.73;;
48613;SDS011;34408;51.426;5.444;2023-01-28T02:42:46;9.75;;;7.05;;
48613;SDS011;34408;51.426;5.444;2023-01-28T02:45:20;10.80;;;8.07;;
48613;SDS011;34408;51.426;5.444;2023-01-28T02:47:49;10.00;;;7.80;;
48613;SDS011;34408;51.426;5.444;2023-01-28T02:50:25;10.30;;;7.80;;
48613;SDS011;34408;51.426;5.444;2023-01-28T02:53:12;10.40;;;8.10;;
48613;SDS011;34408;51.426;5.444;2023-01-28T02:56:12;10.95;;;7.65;;
48613;SDS011;34408;51.426;5.444;2023-01-28T02:58:46;10.50;;;7.85;;
48613;SDS011;34408;51.426;5.444;2023-01-28T03:01:25;11.30;;;8.30;;
48613;SDS011;34408;51.426;5.444;2023-01-28T03:06:30;9.90;;;7.40;;
48613;SDS011;34408;51.426;5.444;2023-01-28T03:09:02;10.73;;;8.13;;
48613;SDS011;34408;51.426;5.444;2023-01-28T03:11:53;11.73;;;8.05;;
48613;SDS011;34408;51.426;5.444;2023-01-28T03:14:42;10.10;;;7.55;;
48613;SDS011;34408;51.426;5.444;2023-01-28T03:17:32;10.65;;;7.82;;
48613;SDS011;34408;51.426;5.444;2023-01-28T03:20:24;10.45;;;7.95;;
48613;SDS011;34408;51.426;5.444;2023-01-28T03:23:11;11.13;;;8.25;;
48613;SDS011;34408;51.426;5.444;2023-01-28T03:26:02;11.25;;;7.93;;
48613;SDS011;34408;51.426;5.444;2023-01-28T03:28:51;11.32;;;8.00;;
48613;SDS011;34408;51.426;5.444;2023-01-28T03:31:42;11.35;;;8.45;;
48613;SDS011;34408;51.426;5.444;2023-01-28T03:34:28;12.93;;;8.98;;
48613;SDS011;34408;51.426;5.444;2023-01-28T03:37:14;10.10;;;7.80;;
48613;SDS011;34408;51.426;5.444;2023-01-28T03:39:41;10.60;;;7.85;;
48613;SDS011;34408;51.426;5.444;2023-01-28T03:42:10;11.25;;;8.05;;
48613;SDS011;34408;51.426;5.444;2023-01-28T03:44:39;12.25;;;8.88;;
48613;SDS011;34408;51.426;5.444;2023-01-28T03:47:17;12.02;;;9.32;;
48613;SDS011;34408;51.426;5.444;2023-01-28T03:49:47;11.30;;;8.82;;
48613;SDS011;34408;51.426;5.444;2023-01-28T03:52:18;12.40;;;9.15;;
48613;SDS011;34408;51.426;5.444;2023-01-28T03:54:48;10.98;;;8.27;;
48613;SDS011;34408;51.426;5.444;2023-01-28T03:57:18;10.38;;;7.60;;
48613;SDS011;34408;51.426;5.444;2023-01-28T03:59:47;10.32;;;7.57;;
48613;SDS011;34408;51.426;5.444;2023-01-28T04:02:18;11.77;;;8.73;;
48613;SDS011;34408;51.426;5.444;2023-01-28T04:04:48;11.88;;;8.73;;
48613;SDS011;34408;51.426;5.444;2023-01-28T04:07:16;10.52;;;7.80;;
48613;SDS011;34408;51.426;5.444;2023-01-28T04:09:44;9.65;;;7.55;;
48613;SDS011;34408;51.426;5.444;2023-01-28T04:12:12;9.50;;;7.25;;
48613;SDS011;34408;51.426;5.444;2023-01-28T04:14:40;9.68;;;7.50;;
48613;SDS011;34408;51.426;5.444;2023-01-28T04:17:07;9.57;;;7.47;;
48613;SDS011;34408;51.426;5.444;2023-01-28T04:19:36;9.00;;;7.07;;
48613;SDS011;34408;51.426;5.444;2023-01-28T04:22:06;8.18;;;6.82;;
48613;SDS011;34408;51.426;5.444;2023-01-28T04:24:37;9.82;;;7.25;;
48613;SDS011;34408;51.426;5.444;2023-01-28T04:27:05;8.00;;;6.55;;
48613;SDS011;34408;51.426;5.444;2023-01-28T04:29:32;8.82;;;6.47;;
48613;SDS011;34408;51.426;5.444;2023-01-28T04:32:00;9.95;;;7.65;;
48613;SDS011;34408;51.426;5.444;2023-01-28T04:34:28;7.72;;;6.00;;
48613;SDS011;34408;51.426;5.444;2023-01-28T04:36:55;8.65;;;6.05;;
48613;SDS011;34408;51.426;5.444;2023-01-28T04:39:24;9.40;;;6.68;;
48613;SDS011;34408;51.426;5.444;2023-01-28T04:41:52;9.15;;;6.05;;
48613;SDS011;34408;51.426;5.444;2023-01-28T04:44:20;8.40;;;6.15;;
48613;SDS011;34408;51.426;5.444;2023-01-28T04:46:48;8.23;;;5.95;;
48613;SDS011;34408;51.426;5.444;2023-01-28T04:49:15;9.02;;;6.07;;
48613;SDS011;34408;51.426;5.444;2023-01-28T04:51:43;7.95;;;6.10;;
48613;SDS011;34408;51.426;5.444;2023-01-28T04:54:11;8.73;;;5.97;;
48613;SDS011;34408;51.426;5.444;2023-01-28T04:56:40;8.65;;;6.80;;
48613;SDS011;34408;51.426;5.444;2023-01-28T04:59:08;8.20;;;6.10;;
48613;SDS011;34408;51.426;5.444;2023-01-28T05:01:35;9.02;;;6.00;;
48613;SDS011;34408;51.426;5.444;2023-01-28T05:04:03;7.95;;;6.15;;
48613;SDS011;34408;51.426;5.444;2023-01-28T05:06:31;7.90;;;6.00;;
48613;SDS011;34408;51.426;5.444;2023-01-28T05:08:59;7.68;;;5.78;;
48613;SDS011;34408;51.426;5.444;2023-01-28T05:11:27;8.07;;;6.25;;
48613;SDS011;34408;51.426;5.444;2023-01-28T05:13:56;8.50;;;6.55;;
48613;SDS011;34408;51.426;5.444;2023-01-28T05:16:24;8.75;;;6.60;;
48613;SDS011;34408;51.426;5.444;2023-01-28T05:18:52;9.35;;;6.60;;
48613;SDS011;34408;51.426;5.444;2023-01-28T05:21:19;9.32;;;6.80;;
48613;SDS011;34408;51.426;5.444;2023-01-28T05:23:47;10.30;;;7.15;;
48613;SDS011;34408;51.426;5.444;2023-01-28T05:26:15;8.63;;;6.63;;
48613;SDS011;34408;51.426;5.444;2023-01-28T05:28:43;9.07;;;6.65;;
48613;SDS011;34408;51.426;5.444;2023-01-28T05:31:12;8.93;;;6.60;;
48613;SDS011;34408;51.426;5.444;2023-01-28T05:33:39;8.95;;;6.20;;
48613;SDS011;34408;51.426;5.444;2023-01-28T05:36:07;8.63;;;6.65;;
48613;SDS011;34408;51.426;5.444;2023-01-28T05:38:35;8.63;;;6.43;;
48613;SDS011;34408;51.426;5.444;2023-01-28T05:41:03;9.10;;;6.93;;
48613;SDS011;34408;51.426;5.444;2023-01-28T05:43:31;8.35;;;6.15;;
48613;SDS011;34408;51.426;5.444;2023-01-28T05:45:59;8.95;;;6.90;;
48613;SDS011;34408;51.426;5.444;2023-01-28T05:48:28;10.10;;;7.03;;
48613;SDS011;34408;51.426;5.444;2023-01-28T05:50:55;10.00;;;7.45;;
48613;SDS011;34408;51.426;5.444;2023-01-28T05:53:23;10.43;;;6.95;;
48613;SDS011;34408;51.426;5.444;2023-01-28T05:55:52;10.02;;;7.20;;
48613;SDS011;34408;51.426;5.444;2023-01-28T05:58:20;11.73;;;7.38;;
48613;SDS011;34408;51.426;5.444;2023-01-28T06:00:48;11.40;;;7.40;;
48613;SDS011;34408;51.426;5.444;2023-01-28T06:03:16;10.13;;;7.70;;
48613;SDS011;34408;51.426;5.444;2023-01-28T06:05:45;9.20;;;7.00;;
48613;SDS011;34408;51.426;5.444;2023-01-28T06:08:14;8.65;;;6.68;;
48613;SDS011;34408;51.426;5.444;2023-01-28T06:10:42;10.05;;;7.22;;
48613;SDS011;34408;51.426;5.444;2023-01-28T06:13:09;11.15;;;7.82;;
48613;SDS011;34408;51.426;5.444;2023-01-28T06:15:37;11.20;;;7.55;;
48613;SDS011;34408;51.426;5.444;2023-01-28T06:18:05;9.35;;;7.13;;
48613;SDS011;34408;51.426;5.444;2023-01-28T06:20:33;9.68;;;7.25;;
48613;SDS011;34408;51.426;5.444;2023-01-28T06:23:02;8.48;;;6.68;;
48613;SDS011;34408;51.426;5.444;2023-01-28T06:25:29;8.18;;;6.28;;
48613;SDS011;34408;51.426;5.444;2023-01-28T06:27:57;9.70;;;7.03;;
48613;SDS011;34408;51.426;5.444;2023-01-28T06:30:25;10.55;;;6.72;;
48613;SDS011;34408;51.426;5.444;2023-01-28T06:32:53;8.82;;;6.15;;
48613;SDS011;34408;51.426;5.444;2023-01-28T06:35:21;9.50;;;7.10;;
48613;SDS011;34408;51.426;5.444;2023-01-28T06:37:49;8.20;;;6.65;;
48613;SDS011;34408;51.426;5.444;2023-01-28T06:40:19;10.25;;;7.15;;
48613;SDS011;34408;51.426;5.444;2023-01-28T06:42:48;8.82;;;6.90;;
48613;SDS011;34408;51.426;5.444;2023-01-28T06:45:16;11.90;;;7.07;;
48613;SDS011;34408;51.426;5.444;2023-01-28T06:47:43;9.63;;;6.30;;
48613;SDS011;34408;51.426;5.444;2023-01-28T06:50:11;8.48;;;6.40;;
48613;SDS011;34408;51.426;5.444;2023-01-28T06:52:39;8.63;;;6.28;;
48613;SDS011;34408;51.426;5.444;2023-01-28T06:55:07;8.70;;;6.88;;
48613;SDS011;34408;51.426;5.444;2023-01-28T06:57:38;8.65;;;6.40;;
48613;SDS011;34408;51.426;5.444;2023-01-28T07:00:08;9.55;;;6.80;;
48613;SDS011;34408;51.426;5.444;2023-01-28T07:02:38;9.88;;;6.72;;
48613;SDS011;34408;51.426;5.444;2023-01-28T07:05:06;9.60;;;6.80;;
48613;SDS011;34408;51.426;5.444;2023-01-28T07:07:34;8.30;;;5.90;;
48613;SDS011;34408;51.426;5.444;2023-01-28T07:10:05;8.63;;;6.43;;
48613;SDS011;34408;51.426;5.444;2023-01-28T07:12:33;8.00;;;6.35;;
48613;SDS011;34408;51.426;5.444;2023-01-28T07:15:02;8.75;;;6.18;;
48613;SDS011;34408;51.426;5.444;2023-01-28T07:17:31;7.72;;;5.88;;
48613;SDS011;34408;51.426;5.444;2023-01-28T07:19:58;8.50;;;6.35;;
48613;SDS011;34408;51.426;5.444;2023-01-28T07:22:26;8.25;;;6.30;;
48613;SDS011;34408;51.426;5.444;2023-01-28T07:24:54;8.52;;;6.35;;
48613;SDS011;34408;51.426;5.444;2023-01-28T07:27:23;8.63;;;6.25;;
48613;SDS011;34408;51.426;5.444;2023-01-28T07:29:51;7.95;;;5.88;;
48613;SDS011;34408;51.426;5.444;2023-01-28T07:32:20;7.50;;;6.05;;
48613;SDS011;34408;51.426;5.444;2023-01-28T07:34:48;7.82;;;6.07;;
48613;SDS011;34408;51.426;5.444;2023-01-28T07:37:16;8.32;;;6.25;;
48613;SDS011;34408;51.426;5.444;2023-01-28T07:39:44;8.65;;;5.97;;
48613;SDS011;34408;51.426;5.444;2023-01-28T07:42:11;9.52;;;7.05;;
48613;SDS011;34408;51.426;5.444;2023-01-28T07:44:39;9.15;;;7.00;;
48613;SDS011;34408;51.426;5.444;2023-01-28T07:47:07;8.65;;;6.57;;
48613;SDS011;34408;51.426;5.444;2023-01-28T07:49:38;9.02;;;6.07;;
48613;SDS011;34408;51.426;5.444;2023-01-28T07:52:05;9.50;;;6.90;;
48613;SDS011;34408;51.426;5.444;2023-01-28T07:54:33;8.98;;;6.53;;
48613;SDS011;34408;51.426;5.444;2023-01-28T07:57:01;9.45;;;6.75;;
48613;SDS011;34408;51.426;5.444;2023-01-28T07:59:31;9.25;;;7.28;;
48613;SDS011;34408;51.426;5.444;2023-01-28T08:01:59;12.10;;;8.00;;
48613;SDS011;34408;51.426;5.444;2023-01-28T08:04:27;8.77;;;6.80;;
48613;SDS011;34408;51.426;5.444;2023-01-28T08:06:57;8.70;;;6.35;;
48613;SDS011;34408;51.426;5.444;2023-01-28T08:09:24;9.88;;;6.95;;
48613;SDS011;34408;51.426;5.444;2023-01-28T08:11:52;9.05;;;7.00;;
48613;SDS011;34408;51.426;5.444;2023-01-28T08:14:20;9.88;;;7.10;;
48613;SDS011;34408;51.426;5.444;2023-01-28T08:16:47;9.25;;;6.75;;
48613;SDS011;34408;51.426;5.444;2023-01-28T08:19:15;10.50;;;6.45;;
48613;SDS011;34408;51.426;5.444;2023-01-28T08:21:44;9.45;;;6.07;;
48613;SDS011;34408;51.426;5.444;2023-01-28T08:24:15;9.98;;;7.15;;
48613;SDS011;34408;51.426;5.444;2023-01-28T08:26:43;8.18;;;6.40;;
48613;SDS011;34408;51.426;5.444;2023-01-28T08:29:11;9.00;;;7.15;;
48613;SDS011;34408;51.426;5.444;2023-01-28T08:31:39;10.18;;;7.38;;
48613;SDS011;34408;51.426;5.444;2023-01-28T08:34:07;9.27;;;6.88;;
48613;SDS011;34408;51.426;5.444;2023-01-28T08:36:34;9.32;;;6.72;;
48613;SDS011;34408;51.426;5.444;2023-01-28T08:39:02;8.88;;;7.10;;
48613;SDS011;34408;51.426;5.444;2023-01-28T08:41:32;9.15;;;6.95;;
48613;SDS011;34408;51.426;5.444;2023-01-28T08:44:00;9.90;;;6.63;;
48613;SDS011;34408;51.426;5.444;2023-01-28T08:46:28;9.93;;;7.03;;
48613;SDS011;34408;51.426;5.444;2023-01-28T08:48:55;9.32;;;6.40;;
48613;SDS011;34408;51.426;5.444;2023-01-28T08:51:23;9.65;;;6.90;;
48613;SDS011;34408;51.426;5.444;2023-01-28T08:53:51;11.40;;;7.05;;
48613;SDS011;34408;51.426;5.444;2023-01-28T08:56:19;8.82;;;7.05;;
48613;SDS011;34408;51.426;5.444;2023-01-28T08:58:48;10.77;;;7.63;;
48613;SDS011;34408;51.426;5.444;2023-01-28T09:01:16;11.82;;;7.30;;
48613;SDS011;34408;51.426;5.444;2023-01-28T09:03:43;9.65;;;7.13;;
48613;SDS011;34408;51.426;5.444;2023-01-28T09:06:11;11.07;;;7.28;;
48613;SDS011;34408;51.426;5.444;2023-01-28T09:08:39;10.68;;;7.55;;
48613;SDS011;34408;51.426;5.444;2023-01-28T09:11:07;10.32;;;6.63;;
48613;SDS011;34408;51.426;5.444;2023-01-28T09:13:34;9.65;;;7.20;;
48613;SDS011;34408;51.426;5.444;2023-01-28T09:16:05;10.18;;;7.13;;
48613;SDS011;34408;51.426;5.444;2023-01-28T09:18:33;9.38;;;6.63;;
48613;SDS011;34408;51.426;5.444;2023-01-28T09:21:03;10.15;;;7.65;;
48613;SDS011;34408;51.426;5.444;2023-01-28T09:23:33;9.75;;;7.38;;
48613;SDS011;34408;51.426;5.444;2023-01-28T09:26:02;9.68;;;7.07;;
48613;SDS011;34408;51.426;5.444;2023-01-28T09:28:31;8.93;;;7.25;;
48613;SDS011;34408;51.426;5.444;2023-01-28T09:31:00;9.50;;;6.85;;
48613;SDS011;34408;51.426;5.444;2023-01-28T09:33:31;9.40;;;7.20;;
48613;SDS011;34408;51.426;5.444;2023-01-28T09:35:59;10.60;;;7.75;;
48613;SDS011;34408;51.426;5.444;2023-01-28T09:38:28;10.10;;;7.28;;
48613;SDS011;34408;51.426;5.444;2023-01-28T09:40:56;9.48;;;7.40;;
48613;SDS011;34408;51.426;5.444;2023-01-28T09:43:30;9.65;;;7.15;;
48613;SDS011;34408;51.426;5.444;2023-01-28T09:46:11;9.57;;;7.10;;
48613;SDS011;34408;51.426;5.444;2023-01-28T09:48:43;9.63;;;7.30;;
48613;SDS011;34408;51.426;5.444;2023-01-28T09:51:17;9.43;;;7.13;;
48613;SDS011;34408;51.426;5.444;2023-01-28T09:53:54;10.10;;;7.43;;
48613;SDS011;34408;51.426;5.444;2023-01-28T09:56:24;10.45;;;7.22;;
48613;SDS011;34408;51.426;5.444;2023-01-28T09:58:55;10.00;;;7.20;;
48613;SDS011;34408;51.426;5.444;2023-01-28T10:01:33;9.93;;;7.15;;
48613;SDS011;34408;51.426;5.444;2023-01-28T10:04:11;11.20;;;8.07;;
48613;SDS011;34408;51.426;5.444;2023-01-28T10:06:51;9.93;;;7.20;;
48613;SDS011;34408;51.426;5.444;2023-01-28T10:09:29;9.65;;;7.35;;
48613;SDS011;34408;51.426;5.444;2023-01-28T10:12:15;11.15;;;8.10;;
48613;SDS011;34408;51.426;5.444;2023-01-28T10:14:56;12.48;;;8.52;;
48613;SDS011;34408;51.426;5.444;2023-01-28T10:17:38;10.48;;;7.70;;
48613;SDS011;34408;51.426;5.444;2023-01-28T10:20:15;11.98;;;8.13;;
48613;SDS011;34408;51.426;5.444;2023-01-28T10:22:48;10.82;;;7.75;;
48613;SDS011;34408;51.426;5.444;2023-01-28T10:25:23;11.18;;;7.85;;
48613;SDS011;34408;51.426;5.444;2023-01-28T10:27:54;9.73;;;7.32;;
48613;SDS011;34408;51.426;5.444;2023-01-28T10:30:23;11.27;;;8.48;;
48613;SDS011;34408;51.426;5.444;2023-01-28T10:32:52;10.02;;;7.68;;
48613;SDS011;34408;51.426;5.444;2023-01-28T10:35:24;10.02;;;7.35;;
48613;SDS011;34408;51.426;5.444;2023-01-28T10:37:53;11.75;;;8.90;;
48613;SDS011;34408;51.426;5.444;2023-01-28T10:40:26;10.75;;;8.07;;
48613;SDS011;34408;51.426;5.444;2023-01-28T10:42:55;10.23;;;7.78;;
48613;SDS011;34408;51.426;5.444;2023-01-28T10:45:24;9.43;;;7.78;;
48613;SDS011;34408;51.426;5.444;2023-01-28T10:47:55;11.55;;;8.60;;
48613;SDS011;34408;51.426;5.444;2023-01-28T10:50:30;13.50;;;8.18;;
48613;SDS011;34408;51.426;5.444;2023-01-28T10:52:58;9.88;;;7.53;;
48613;SDS011;34408;51.426;5.444;2023-01-28T10:55:30;11.18;;;8.13;;
48613;SDS011;34408;51.426;5.444;2023-01-28T10:58:02;10.95;;;8.45;;
48613;SDS011;34408;51.426;5.444;2023-01-28T11:00:34;10.85;;;8.25;;
48613;SDS011;34408;51.426;5.444;2023-01-28T11:03:03;10.68;;;7.93;;
48613;SDS011;34408;51.426;5.444;2023-01-28T11:05:33;13.15;;;8.38;;
48613;SDS011;34408;51.426;5.444;2023-01-28T11:08:04;9.57;;;7.38;;
48613;SDS011;34408;51.426;5.444;2023-01-28T11:10:38;9.98;;;7.50;;
48613;SDS011;34408;51.426;5.444;2023-01-28T11:13:13;13.32;;;8.02;;
48613;SDS011;34408;51.426;5.444;2023-01-28T11:15:46;11.13;;;8.32;;
48613;SDS011;34408;51.426;5.444;2023-01-28T11:18:16;9.60;;;7.55;;
48613;SDS011;34408;51.426;5.444;2023-01-28T11:20:52;10.00;;;8.07;;
48613;SDS011;34408;51.426;5.444;2023-01-28T11:23:23;10.55;;;7.72;;
48613;SDS011;34408;51.426;5.444;2023-01-28T11:25:59;8.65;;;6.88;;
48613;SDS011;34408;51.426;5.444;2023-01-28T11:28:30;9.23;;;7.07;;
48613;SDS011;34408;51.426;5.444;2023-01-28T11:30:59;9.30;;;7.13;;
48613;SDS011;34408;51.426;5.444;2023-01-28T11:33:31;8.77;;;7.05;;
48613;SDS011;34408;51.426;5.444;2023-01-28T11:36:11;8.55;;;6.57;;
48613;SDS011;34408;51.426;5.444;2023-01-28T11:38:48;10.68;;;7.20;;
48613;SDS011;34408;51.426;5.444;2023-01-28T11:41:18;9.82;;;7.70;;
48613;SDS011;34408;51.426;5.444;2023-01-28T11:43:52;9.00;;;7.07;;
48613;SDS011;34408;51.426;5.444;2023-01-28T11:46:25;9.18;;;7.03;;
48613;SDS011;34408;51.426;5.444;2023-01-28T11:49:06;9.38;;;6.75;;
48613;SDS011;34408;51.426;5.444;2023-01-28T11:51:46;8.90;;;6.78;;
48613;SDS011;34408;51.426;5.444;2023-01-28T11:54:29;10.52;;;6.95;;
48613;SDS011;34408;51.426;5.444;2023-01-28T11:57:16;8.70;;;6.57;;
48613;SDS011;34408;51.426;5.444;2023-01-28T11:59:58;8.32;;;6.38;;
48613;SDS011;34408;51.426;5.444;2023-01-28T12:05:24;9.77;;;7.10;;
48613;SDS011;34408;51.426;5.444;2023-01-28T12:08:10;9.27;;;7.15;;
48613;SDS011;34408;51.426;5.444;2023-01-28T12:10:46;11.60;;;6.90;;
48613;SDS011;34408;51.426;5.444;2023-01-28T12:13:31;8.95;;;6.65;;
48613;SDS011;34408;51.426;5.444;2023-01-28T12:16:12;10.43;;;7.72;;
48613;SDS011;34408;51.426;5.444;2023-01-28T12:22:00;9.73;;;6.63;;
48613;SDS011;34408;51.426;5.444;2023-01-28T12:24:43;9.52;;;7.13;;
48613;SDS011;34408;51.426;5.444;2023-01-28T12:27:25;8.43;;;6.50;;
48613;SDS011;34408;51.426;5.444;2023-01-28T12:30:05;7.85;;;6.20;;
48613;SDS011;34408;51.426;5.444;2023-01-28T12:32:49;8.27;;;6.25;;
48613;SDS011;34408;51.426;5.444;2023-01-28T12:35:33;9.68;;;6.93;;
48613;SDS011;34408;51.426;5.444;2023-01-28T12:38:18;7.57;;;5.93;;
48613;SDS011;34408;51.426;5.444;2023-01-28T12:41:00;10.00;;;6.88;;
48613;SDS011;34408;51.426;5.444;2023-01-28T12:43:44;8.98;;;7.28;;
48613;SDS011;34408;51.426;5.444;2023-01-28T12:46:17;9.60;;;7.03;;
48613;SDS011;34408;51.426;5.444;2023-01-28T12:48:57;9.15;;;7.15;;
48613;SDS011;34408;51.426;5.444;2023-01-28T12:51:31;14.45;;;7.03;;
48613;SDS011;34408;51.426;5.444;2023-01-28T12:54:05;8.82;;;7.13;;
48613;SDS011;34408;51.426;5.444;2023-01-28T12:56:44;9.07;;;6.93;;
48613;SDS011;34408;51.426;5.444;2023-01-28T12:59:18;8.93;;;6.70;;
48613;SDS011;34408;51.426;5.444;2023-01-28T13:01:54;8.73;;;6.85;;
48613;SDS011;34408;51.426;5.444;2023-01-28T13:04:30;9.75;;;7.53;;
48613;SDS011;34408;51.426;5.444;2023-01-28T13:07:06;10.38;;;7.40;;
48613;SDS011;34408;51.426;5.444;2023-01-28T13:09:42;8.20;;;6.38;;
48613;SDS011;34408;51.426;5.444;2023-01-28T13:12:19;8.77;;;6.50;;
48613;SDS011;34408;51.426;5.444;2023-01-28T13:14:48;10.52;;;7.03;;
48613;SDS011;34408;51.426;5.444;2023-01-28T13:17:26;10.55;;;8.30;;
48613;SDS011;34408;51.426;5.444;2023-01-28T13:19:56;8.50;;;6.63;;
48613;SDS011;34408;51.426;5.444;2023-01-28T13:22:26;10.00;;;6.78;;
48613;SDS011;34408;51.426;5.444;2023-01-28T13:24:55;8.65;;;6.45;;
48613;SDS011;34408;51.426;5.444;2023-01-28T13:27:27;8.90;;;6.53;;
48613;SDS011;34408;51.426;5.444;2023-01-28T13:30:03;8.00;;;6.45;;
48613;SDS011;34408;51.426;5.444;2023-01-28T13:32:53;8.27;;;6.25;;
48613;SDS011;34408;51.426;5.444;2023-01-28T13:35:30;7.50;;;5.85;;
48613;SDS011;34408;51.426;5.444;2023-01-28T13:38:05;8.23;;;6.55;;
48613;SDS011;34408;51.426;5.444;2023-01-28T13:40:35;8.50;;;5.85;;
48613;SDS011;34408;51.426;5.444;2023-01-28T13:46:03;8.77;;;6.25;;
48613;SDS011;34408;51.426;5.444;2023-01-28T13:48:34;7.80;;;5.47;;
48613;SDS011;34408;51.426;5.444;2023-01-28T13:51:14;7.40;;;5.57;;
48613;SDS011;34408;51.426;5.444;2023-01-28T13:53:47;7.47;;;5.57;;
48613;SDS011;34408;51.426;5.444;2023-01-28T13:56:21;6.72;;;5.32;;
48613;SDS011;34408;51.426;5.444;2023-01-28T13:59:18;7.93;;;5.10;;
48613;SDS011;34408;51.426;5.444;2023-01-28T14:08:21;7.00;;;4.68;;
48613;SDS011;34408;51.426;5.444;2023-01-28T14:11:16;6.07;;;4.05;;
48613;SDS011;34408;51.426;5.444;2023-01-28T14:17:09;7.53;;;5.57;;
48613;SDS011;34408;51.426;5.444;2023-01-28T14:19:48;6.75;;;4.90;;
48613;SDS011;34408;51.426;5.444;2023-01-28T14:22:19;7.55;;;4.90;;
48613;SDS011;34408;51.426;5.444;2023-01-28T14:24:47;6.60;;;5.13;;
48613;SDS011;34408;51.426;5.444;2023-01-28T14:27:16;8.40;;;4.90;;
48613;SDS011;34408;51.426;5.444;2023-01-28T14:29:52;7.78;;;5.50;;
48613;SDS011;34408;51.426;5.444;2023-01-28T14:32:30;6.43;;;4.95;;
48613;SDS011;34408;51.426;5.444;2023-01-28T14:35:04;6.38;;;4.57;;
48613;SDS011;34408;51.426;5.444;2023-01-28T14:37:34;7.45;;;4.50;;
48613;SDS011;34408;51.426;5.444;2023-01-28T14:40:03;6.93;;;5.22;;
48613;SDS011;34408;51.426;5.444;2023-01-28T14:42:34;6.72;;;4.78;;
48613;SDS011;34408;51.426;5.444;2023-01-28T14:45:21;5.38;;;4.40;;
48613;SDS011;34408;51.426;5.444;2023-01-28T14:48:07;7.70;;;5.03;;
48613;SDS011;34408;51.426;5.444;2023-01-28T14:50:52;6.35;;;4.80;;
48613;SDS011;34408;51.426;5.444;2023-01-28T14:56:21;7.28;;;5.40;;
48613;SDS011;34408;51.426;5.444;2023-01-28T14:59:01;6.47;;;5.03;;
48613;SDS011;34408;51.426;5.444;2023-01-28T15:01:43;11.55;;;4.72;;
48613;SDS011;34408;51.426;5.444;2023-01-28T15:04:25;6.50;;;4.70;;
48613;SDS011;34408;51.426;5.444;2023-01-28T15:06:54;5.93;;;4.40;;
48613;SDS011;34408;51.426;5.444;2023-01-28T15:09:22;5.93;;;4.47;;
48613;SDS011;34408;51.426;5.444;2023-01-28T15:11:51;5.85;;;4.35;;
48613;SDS011;34408;51.426;5.444;2023-01-28T15:14:25;5.80;;;4.68;;
48613;SDS011;34408;51.426;5.444;2023-01-28T15:16:56;5.60;;;4.18;;
48613;SDS011;34408;51.426;5.444;2023-01-28T15:19:25;6.95;;;4.90;;
48613;SDS011;34408;51.426;5.444;2023-01-28T15:21:56;5.82;;;4.22;;
48613;SDS011;34408;51.426;5.444;2023-01-28T15:24:26;5.88;;;4.55;;
48613;SDS011;34408;51.426;5.444;2023-01-28T15:26:56;5.88;;;4.53;;
48613;SDS011;34408;51.426;5.444;2023-01-28T15:29:25;7.35;;;5.13;;
48613;SDS011;34408;51.426;5.444;2023-01-28T15:31:59;6.18;;;4.45;;
48613;SDS011;34408;51.426;5.444;2023-01-28T15:34:27;6.20;;;4.07;;
48613;SDS011;34408;51.426;5.444;2023-01-28T15:36:56;6.38;;;4.55;;
48613;SDS011;34408;51.426;5.444;2023-01-28T15:39:24;6.32;;;4.43;;
48613;SDS011;34408;51.426;5.444;2023-01-28T15:41:54;6.32;;;4.55;;